logo tempoitalia

Diretta Meteo Bucarest-Imh, Romanialunedì 31 agosto ore 08:00

Mappa
Sereno 19 °C Sereno 24 Ore: T.min 16 T.max 31
Ponente Est/Nord-Est Km/h 9.3 Punto di rugiada: 15 °C Umidità: 77% Visibilità: 10 Km
Il sole sorge alle: 06:36 Il sole tramonta alle: 19:54
31 Agosto 2026 08:00 tempo osservato: Sereno Sereno 19 77 1018 vento: Nord E/NE 9.3
31 Agosto 2026 07:30 tempo osservato: Sereno Sereno 17 88 1018 vento: Nord N 5.5
31 Agosto 2026 07:00 tempo osservato: Sereno Sereno 17 82 1018 vento: Nord N 5.5
31 Agosto 2026 06:30 tempo osservato: Sereno Sereno 16 87 1018 vento: Nord N 3.7
31 Agosto 2026 06:00 tempo osservato: Sereno Sereno 17 82 1018 vento: Nord N 1.8
31 Agosto 2026 05:30 tempo osservato: Sereno Sereno 17 82 1018 vento: Nord N 5.5
31 Agosto 2026 05:00 tempo osservato: Sereno Sereno 17 82 1018 vento: Nord N 0
31 Agosto 2026 04:30 tempo osservato: Sereno Sereno 17 82 1018 vento: Nord N 1.8
31 Agosto 2026 04:00 tempo osservato: Sereno Sereno 19 72 1018 vento: Nord N 0
31 Agosto 2026 03:30 tempo osservato: Sereno Sereno 20 68 1018 vento: Nord N 7.4
31 Agosto 2026 03:00 tempo osservato: Sereno Sereno 19 72 1018 vento: Nord NE 7.4
31 Agosto 2026 02:30 tempo osservato: Sereno Sereno 20 68 1018 vento: Nord E 7.4
31 Agosto 2026 02:00 tempo osservato: Sereno Sereno 20 72 1018 vento: Nord E 9.3
31 Agosto 2026 01:30 tempo osservato: Sereno Sereno 20 72 1018 vento: Nord E 7.4
31 Agosto 2026 01:00 tempo osservato: Sereno Sereno 21 68 1018 vento: Nord E/NE 9.3
31 Agosto 2026 00:30 tempo osservato: Sereno Sereno 20 72 1018 vento: Nord E 11.1
31 Agosto 2026 00:00 tempo osservato: Sereno Sereno 20 77 1018 vento: Nord E/NE 11.1
30 Agosto 2026 23:30 tempo osservato: Sereno Sereno 21 68 1017 vento: Nord N 5.5
30 Agosto 2026 23:00 tempo osservato: Sereno Sereno 22 64 1017 vento: Nord N 5.5
30 Agosto 2026 22:30 tempo osservato: Sereno Sereno 23 60 1017 vento: Nord N 3.7
30 Agosto 2026 22:00 tempo osservato: Sereno Sereno 23 60 1017 vento: Nord N 3.7
30 Agosto 2026 21:30 tempo osservato: Sereno Sereno 23 60 1017 vento: Nord NE 7.4
30 Agosto 2026 21:00 tempo osservato: Sereno Sereno 24 57 1017 vento: Nord E/NE 7.4
30 Agosto 2026 20:30 tempo osservato: Sereno Sereno 25 50 1017 vento: Nord N 5.5
30 Agosto 2026 20:00 tempo osservato: Sereno Sereno 26 50 1016 vento: Nord E 7.4
30 Agosto 2026 19:30 tempo osservato: Sereno Sereno 27 44 1016 vento: Nord E/NE 11.1
30 Agosto 2026 19:00 tempo osservato: Sereno Sereno 28 42 1016 vento: Nord E/NE 9.3
30 Agosto 2026 18:30 tempo osservato: Sereno Sereno 30 37 1016 vento: Nord E/NE 9.3
30 Agosto 2026 18:00 tempo osservato: Sereno Sereno 30 37 1016 vento: Nord NE 9.3
30 Agosto 2026 17:30 tempo osservato: Sereno Sereno 30 35 1016 vento: Nord N 3.7
30 Agosto 2026 17:00 tempo osservato: Sereno Sereno 31 35 1017 vento: Nord N 5.5
30 Agosto 2026 16:30 tempo osservato: Sereno Sereno 30 37 1017 vento: Nord N 5.5
30 Agosto 2026 16:00 tempo osservato: Sereno Sereno 31 37 1017 vento: Nord N 5.5
30 Agosto 2026 15:30 tempo osservato: Sereno Sereno 31 37 1017 vento: Nord SE 7.4
30 Agosto 2026 15:00 tempo osservato: Sereno Sereno 29 39 1017 vento: Nord N 7.4
30 Agosto 2026 14:30 tempo osservato: Sereno Sereno 29 42 1018 vento: Nord N 7.4
30 Agosto 2026 14:00 tempo osservato: Sereno Sereno 30 40 1018 vento: Nord SE 9.3
30 Agosto 2026 13:30 tempo osservato: Sereno Sereno 30 40 1018 vento: Nord N 7.4
30 Agosto 2026 13:00 tempo osservato: Sereno Sereno 29 45 1018 vento: Nord N 5.5
30 Agosto 2026 12:30 tempo osservato: Sereno Sereno 28 45 1018 vento: Nord N 3.7
30 Agosto 2026 12:00 tempo osservato: Sereno Sereno 27 50 1018 vento: Nord N 5.5
30 Agosto 2026 11:30 tempo osservato: Sereno Sereno 26 54 1018 vento: Nord N 3.7
30 Agosto 2026 11:00 tempo osservato: Sereno Sereno 27 50 1018 vento: Nord NE 7.4
30 Agosto 2026 10:30 tempo osservato: Sereno Sereno 24 57 1018 vento: Nord N 3.7
30 Agosto 2026 10:00 tempo osservato: Sereno Sereno 23 64 1018 vento: Nord N 5.5
30 Agosto 2026 09:30 tempo osservato: Sereno Sereno 21 77 1018 vento: Nord N 3.7
30 Agosto 2026 09:00 tempo osservato: Sereno Sereno 21 77 1018 vento: Nord N 3.7